Station Historical Data
Daily Summary for June 3, 2012 Units:  Metric    English   Both
« Previous Day
Next Day »
Daily Weekly Monthly Yearly Custom
  High: Low: Average:
Temperature: 28.6 °C 14.2 °C 21.7 °C
Dew Point: 22.8 °C 13.1 °C 17.9 °C
Humidity: 94% 58% 80%
Wind Speed: 20.9km/h 0km/h 4.8km/h
Wind Gust: 27.4km/h - -
Wind- - South
Pressure: 1014.4 hPa 1009.4 hPa -
Precipitation: 38.86 mm    
Historical Graphs
 
 
Tabular Data for June 3, 2012
Time Temperature Dew Point Pressure Wind Wind Speed Wind Gust Humidity Rainfall Rate (Hourly) Conditions
00:00 16.1 °C 14.3 °C 1013.4 hPa Calm     89% 0 mm
00:05 16.1 °C 14.1 °C 1013.4 hPa Calm     88% 0 mm
00:10 15.9 °C 13.9 °C 1013.4 hPa Calm     88% 0 mm
00:15 15.9 °C 14.1 °C 1013.4 hPa Calm     89% 0 mm
00:20 16 °C 14.2 °C 1013.4 hPa Calm     89% 0 mm
00:25 16 °C 14.2 °C 1013.4 hPa Calm     89% 0 mm
00:30 16.1 °C 14.2 °C 1013.4 hPa Calm     89% 0 mm
00:35 15.9 °C 13.9 °C 1013.4 hPa Calm     88% 0 mm
00:40 15.8 °C 14 °C 1013.4 hPa Calm     89% 0 mm
00:45 15.8 °C 14.2 °C 1013.4 hPa Calm     90% 0 mm
00:50 15.8 °C 14.2 °C 1013.4 hPa Calm     90% 0 mm
00:55 16 °C 14.3 °C 1013.4 hPa Calm     90% 0 mm
01:00 16.3 °C 14.3 °C 1013.4 hPa Calm     88% 0 mm
01:05 16.3 °C 14.3 °C 1013.4 hPa Calm     88% 0 mm
01:10 16.3 °C 14.3 °C 1013.4 hPa Calm     88% 0 mm
01:15 16.2 °C 14.2 °C 1013.1 hPa Calm     88% 0 mm
01:20 15.9 °C 13.9 °C 1013.1 hPa Calm     88% 0 mm
01:25 15.6 °C 13.8 °C 1013.1 hPa Calm     89% 0 mm
01:30 15.3 °C 13.6 °C 1013.1 hPa Calm     89% 0 mm
01:36 15.2 °C 13.7 °C 1013.1 hPa Calm     91% 0 mm
01:40 15.1 °C 13.7 °C 1013.1 hPa Calm     91% 0 mm
01:46 14.9 °C 13.5 °C 1013.1 hPa Calm     91% 0 mm
01:51 15 °C 13.7 °C 1013.1 hPa Calm     92% 0 mm
01:56 15.1 °C 13.8 °C 1013.1 hPa Calm     92% 0 mm
02:01 14.9 °C 13.6 °C 1012.8 hPa Calm     92% 0 mm
02:06 14.8 °C 13.6 °C 1013.1 hPa SSW 1.6 km/h 1.6 km/h 92% 0 mm
02:11 14.8 °C 13.5 °C 1013.1 hPa Calm   1.6 km/h 92% 0 mm
02:16 14.7 °C 13.4 °C 1013.1 hPa Calm     92% 0 mm
02:21 14.8 °C 13.7 °C 1012.8 hPa Calm     93% 0 mm
02:26 14.8 °C 13.7 °C 1012.8 hPa Calm     93% 0 mm
02:31 14.9 °C 13.8 °C 1012.8 hPa Calm   1.6 km/h 93% 0 mm
02:36 14.9 °C 13.7 °C 1012.8 hPa Calm     92% 0 mm
02:41 15 °C 13.7 °C 1012.8 hPa Calm     92% 0 mm
02:46 15 °C 13.7 °C 1012.8 hPa Calm     92% 0 mm
02:51 15.1 °C 13.8 °C 1012.8 hPa Calm     92% 0 mm
02:56 15.1 °C 13.8 °C 1012.8 hPa WSW 1.6 km/h 1.6 km/h 92% 0 mm
03:01 15.1 °C 13.8 °C 1012.8 hPa Calm     92% 0 mm
03:06 14.9 °C 13.5 °C 1012.8 hPa Calm     91% 0 mm
03:11 14.8 °C 13.4 °C 1012.8 hPa Calm     91% 0 mm
03:16 14.7 °C 13.4 °C 1012.8 hPa Calm   1.6 km/h 92% 0 mm
03:21 14.5 °C 13.2 °C 1013.1 hPa Calm     92% 0 mm
03:26 14.4 °C 13.1 °C 1012.8 hPa Calm   1.6 km/h 92% 0 mm
03:31 14.4 °C 13.3 °C 1012.8 hPa Calm     93% 0 mm
03:36 14.3 °C 13.2 °C 1012.8 hPa Calm     93% 0 mm
03:41 14.3 °C 13.2 °C 1012.8 hPa Calm     93% 0 mm
03:46 14.2 °C 13.1 °C 1012.8 hPa Calm     93% 0 mm
03:51 14.2 °C 13.3 °C 1012.8 hPa Calm     94% 0 mm
03:56 14.2 °C 13.1 °C 1013.1 hPa Calm     93% 0 mm
04:01 14.2 °C 13.1 °C 1013.1 hPa Calm   1.6 km/h 93% 0 mm
04:06 14.2 °C 13.2 °C 1013.1 hPa Calm     94% 0 mm
04:11 14.3 °C 13.3 °C 1013.1 hPa Calm     94% 0 mm
04:16 14.4 °C 13.4 °C 1013.1 hPa Calm     94% 0 mm
04:22 14.4 °C 13.3 °C 1013.1 hPa Calm     93% 0 mm
04:27 14.6 °C 13.4 °C 1013.1 hPa Calm     93% 0 mm
04:32 14.8 °C 13.7 °C 1013.1 hPa Calm     93% 0 mm
04:37 15.1 °C 13.9 °C 1013.1 hPa Calm     93% 0 mm
04:42 15.1 °C 13.8 °C 1013.1 hPa Calm     92% 0 mm
04:47 15.2 °C 13.9 °C 1012.8 hPa Calm     92% 0 mm
04:52 15.2 °C 13.7 °C 1013.1 hPa Calm     91% 0 mm
04:57 15 °C 13.6 °C 1013.1 hPa Calm     91% 0 mm
05:02 14.8 °C 13.4 °C 1013.1 hPa Calm     91% 0 mm
05:07 14.8 °C 13.6 °C 1013.1 hPa Calm     92% 0 mm
05:12 14.8 °C 13.5 °C 1013.1 hPa Calm     92% 0 mm
05:17 14.7 °C 13.4 °C 1013.1 hPa Calm     92% 0 mm
05:22 14.5 °C 13.2 °C 1013.4 hPa Calm     92% 0 mm
05:27 14.6 °C 13.4 °C 1013.4 hPa Calm     93% 0 mm
05:32 14.7 °C 13.6 °C 1013.1 hPa Calm     93% 0 mm
05:37 14.8 °C 13.7 °C 1013.1 hPa Calm     93% 0 mm
05:42 14.9 °C 13.8 °C 1013.4 hPa Calm     93% 0 mm
05:47 15 °C 13.9 °C 1013.4 hPa Calm     93% 0 mm
05:52 15.1 °C 14 °C 1013.4 hPa Calm     93% 0 mm
05:57 15.2 °C 14.1 °C 1013.4 hPa Calm     93% 0 mm
06:02 15.4 °C 14.1 °C 1013.4 hPa Calm     92% 0 mm
06:07 15.6 °C 14.3 °C 1013.1 hPa Calm   1.6 km/h 92% 0 mm
06:12 15.7 °C 14.4 °C 1013.1 hPa East 1.6 km/h 1.6 km/h 92% 0 mm
06:18 15.8 °C 14.3 °C 1013.1 hPa East 3.2 km/h 3.2 km/h 91% 0 mm
06:23 15.8 °C 14.3 °C 1013.1 hPa Calm   1.6 km/h 91% 0 mm
06:28 15.7 °C 14.3 °C 1013.1 hPa ESE 1.6 km/h 3.2 km/h 91% 0 mm
06:33 15.7 °C 14.3 °C 1013.1 hPa Calm   1.6 km/h 91% 0 mm
06:38 15.7 °C 14.4 °C 1013.1 hPa Calm   1.6 km/h 92% 0 mm
06:43 15.8 °C 14.5 °C 1013.1 hPa Calm   1.6 km/h 92% 0 mm
06:48 15.8 °C 14.6 °C 1013.1 hPa Calm   1.6 km/h 92% 0 mm
06:53 15.9 °C 14.6 °C 1013.4 hPa ESE 3.2 km/h 3.2 km/h 92% 0 mm
06:58 15.9 °C 14.7 °C 1013.4 hPa ESE 1.6 km/h 3.2 km/h 92% 0 mm
07:03 15.9 °C 14.7 °C 1013.4 hPa SSE 3.2 km/h 3.2 km/h 92% 0 mm
07:08 16 °C 14.7 °C 1013.8 hPa Calm   1.6 km/h 92% 0 mm
07:13 16 °C 14.7 °C 1013.8 hPa Calm   3.2 km/h 92% 0 mm
07:18 16.1 °C 14.8 °C 1013.8 hPa South 4.8 km/h 4.8 km/h 92% 0 mm
07:23 16.3 °C 15 °C 1013.8 hPa SSE 4.8 km/h 4.8 km/h 92% 0 mm
07:28 16.4 °C 15.1 °C 1013.8 hPa SE 1.6 km/h 4.8 km/h 92% 0 mm
07:33 16.5 °C 15.2 °C 1014.1 hPa SE 1.6 km/h 3.2 km/h 92% 0 mm
07:38 16.6 °C 15.1 °C 1014.1 hPa Calm   1.6 km/h 91% 0 mm
07:43 16.7 °C 15.2 °C 1013.8 hPa SE 1.6 km/h 3.2 km/h 91% 0 mm
07:48 16.8 °C 15.3 °C 1014.1 hPa ESE 1.6 km/h 3.2 km/h 91% 0 mm
07:53 16.8 °C 15.2 °C 1014.1 hPa ESE 1.6 km/h 3.2 km/h 90% 0 mm
07:58 16.9 °C 15.4 °C 1014.1 hPa SE 3.2 km/h 3.2 km/h 91% 0 mm
08:03 17.1 °C 15.6 °C 1014.1 hPa SSE 1.6 km/h 4.8 km/h 91% 0 mm
08:08 17.1 °C 15.4 °C 1013.8 hPa ESE 3.2 km/h 3.2 km/h 90% 0 mm
08:13 17.2 °C 15.7 °C 1013.8 hPa ESE 3.2 km/h 3.2 km/h 91% 0 mm
08:18 17.3 °C 15.8 °C 1013.8 hPa SE 1.6 km/h 4.8 km/h 91% 0 mm
08:23 17.4 °C 15.9 °C 1014.1 hPa SE 3.2 km/h 4.8 km/h 91% 0 mm
08:28 17.6 °C 15.9 °C 1013.8 hPa ESE 4.8 km/h 4.8 km/h 90% 0 mm
08:33 17.8 °C 15.9 °C 1013.8 hPa ESE 1.6 km/h 6.4 km/h 89% 0 mm
08:38 17.9 °C 16.1 °C 1013.8 hPa SE 3.2 km/h 4.8 km/h 89% 0 mm
08:43 18.3 °C 16.4 °C 1013.8 hPa ESE 3.2 km/h 4.8 km/h 89% 0 mm
08:48 18.4 °C 16.4 °C 1013.4 hPa East 3.2 km/h 6.4 km/h 88% 0 mm
08:53 18.8 °C 16.6 °C 1013.8 hPa South 4.8 km/h 4.8 km/h 87% 0 mm
08:58 19.1 °C 16.5 °C 1014.1 hPa SE 1.6 km/h 6.4 km/h 85% 0 mm
09:03 19.2 °C 16.7 °C 1014.1 hPa SE 4.8 km/h 4.8 km/h 85% 0 mm
09:08 19.4 °C 16.8 °C 1013.8 hPa SSE 6.4 km/h 6.4 km/h 85% 0 mm
09:13 19.5 °C 16.9 °C 1013.8 hPa South 4.8 km/h 6.4 km/h 85% 0 mm
09:19 19.7 °C 16.8 °C 1014.1 hPa South 4.8 km/h 11.3 km/h 83% 0 mm
09:24 20 °C 16.7 °C 1013.8 hPa SSE 9.7 km/h 12.9 km/h 81% 0 mm
09:29 20.3 °C 16.8 °C 1014.1 hPa SE 11.3 km/h 14.5 km/h 80% 0 mm
09:34 20.5 °C 16.7 °C 1014.1 hPa SSE 6.4 km/h 11.3 km/h 79% 0 mm
09:39 20.6 °C 16.6 °C 1014.1 hPa SE 6.4 km/h 12.9 km/h 78% 0 mm
09:44 20.5 °C 16.6 °C 1014.1 hPa South 1.6 km/h 8 km/h 78% 0 mm
09:49 20.5 °C 16.7 °C 1014.1 hPa SSW 3.2 km/h 6.4 km/h 79% 0 mm
09:54 20.6 °C 16.8 °C 1014.4 hPa South 3.2 km/h 8 km/h 79% 0 mm
09:59 20.6 °C 16.8 °C 1014.1 hPa SSE 9.7 km/h 9.7 km/h 79% 0 mm
10:04 20.7 °C 16.9 °C 1014.1 hPa South 4.8 km/h 9.7 km/h 79% 0 mm
10:09 20.9 °C 17.1 °C 1013.8 hPa ESE 9.7 km/h 9.7 km/h 79% 0 mm
10:14 21.2 °C 17.4 °C 1013.8 hPa SE 6.4 km/h 11.3 km/h 79% 0 mm
10:19 21.4 °C 17.8 °C 1014.1 hPa SE 8 km/h 9.7 km/h 80% 0 mm
10:24 21.8 °C 17.8 °C 1014.1 hPa Calm   9.7 km/h 78% 0 mm
10:29 22.1 °C 17.9 °C 1013.8 hPa SE 6.4 km/h 8 km/h 77% 0 mm
10:34 22.4 °C 18.2 °C 1013.8 hPa SW 1.6 km/h 9.7 km/h 77% 0 mm
10:39 22.7 °C 18.3 °C 1013.8 hPa SSW 1.6 km/h 6.4 km/h 76% 0 mm
10:44 23.1 °C 18.4 °C 1013.8 hPa ESE 6.4 km/h 8 km/h 75% 0 mm
10:49 23.3 °C 18.2 °C 1013.4 hPa SSW 4.8 km/h 8 km/h 73% 0 mm
10:54 23.6 °C 18.9 °C 1013.4 hPa WSW 3.2 km/h 6.4 km/h 75% 0 mm
10:59 23.9 °C 18.6 °C 1013.4 hPa SE 8 km/h 8 km/h 72% 0 mm
11:04 24.1 °C 18.5 °C 1013.4 hPa SSW 8 km/h 11.3 km/h 71% 0 mm
11:09 24.2 °C 18.4 °C 1013.4 hPa South 4.8 km/h 11.3 km/h 70% 0 mm
11:14 24.4 °C 18.1 °C 1013.4 hPa SSW 9.7 km/h 11.3 km/h 68% 0 mm
11:19 24.5 °C 18.2 °C 1013.4 hPa SE 11.3 km/h 16.1 km/h 68% 0 mm
11:24 24.6 °C 17.8 °C 1013.4 hPa SE 11.3 km/h 17.7 km/h 66% 0 mm
11:29 24.6 °C 17.6 °C 1013.4 hPa SE 11.3 km/h 16.1 km/h 65% 0 mm
11:34 24.7 °C 17.7 °C 1013.4 hPa SE 9.7 km/h 17.7 km/h 65% 0 mm
11:39 25 °C 17.7 °C 1013.1 hPa SSE 6.4 km/h 12.9 km/h 64% 0 mm
11:44 25.2 °C 18.7 °C 1013.1 hPa SSW 12.9 km/h 12.9 km/h 67% 0 mm
11:49 25.4 °C 18.6 °C 1013.1 hPa SE 11.3 km/h 11.3 km/h 66% 0 mm
11:54 25.3 °C 18.3 °C 1013.1 hPa SE 11.3 km/h 16.1 km/h 65% 0 mm
11:59 25.6 °C 18.2 °C 1013.1 hPa SE 9.7 km/h 14.5 km/h 64% 0 mm
12:04 25.6 °C 18.1 °C 1013.1 hPa SSE 11.3 km/h 19.3 km/h 63% 0 mm
12:09 25.7 °C 18.2 °C 1013.1 hPa SE 12.9 km/h 16.1 km/h 63% 0 mm
12:14 25.7 °C 17.9 °C 1013.1 hPa SE 11.3 km/h 16.1 km/h 62% 0 mm
12:19 26.1 °C 18.7 °C 1013.1 hPa SE 17.7 km/h 17.7 km/h 64% 0 mm
12:24 26.1 °C 18 °C 1013.1 hPa ESE 9.7 km/h 17.7 km/h 61% 0 mm
12:29 26.3 °C 17.4 °C 1013.1 hPa SW 4.8 km/h 12.9 km/h 58% 0 mm
12:34 26.4 °C 19.1 °C 1013.1 hPa SSE 8 km/h 14.5 km/h 64% 0 mm
12:39 26.4 °C 18.1 °C 1013.1 hPa SE 11.3 km/h 17.7 km/h 60% 0 mm
12:44 26.5 °C 18.4 °C 1013.1 hPa SSW 6.4 km/h 19.3 km/h 61% 0 mm
12:49 26.7 °C 18.6 °C 1012.8 hPa SSE 8 km/h 17.7 km/h 61% 0 mm
12:54 26.8 °C 18.1 °C 1012.8 hPa SSW 8 km/h 16.1 km/h 59% 0 mm
12:59 26.8 °C 18.9 °C 1012.8 hPa SE 11.3 km/h 16.1 km/h 62% 0 mm
13:04 26.9 °C 19.3 °C 1012.8 hPa SSE 9.7 km/h 12.9 km/h 63% 0 mm
13:09 27.2 °C 19.3 °C 1012.8 hPa SSE 9.7 km/h 12.9 km/h 62% 0 mm
13:14 27.3 °C 18.8 °C 1012.8 hPa SW 4.8 km/h 11.3 km/h 60% 0 mm
13:19 27.5 °C 19.1 °C 1012.8 hPa SSW 9.7 km/h 11.3 km/h 60% 0 mm
13:24 27.5 °C 19.1 °C 1012.4 hPa ESE 3.2 km/h 12.9 km/h 60% 0 mm
13:29 27.7 °C 18.7 °C 1012.4 hPa SE 8 km/h 14.5 km/h 58% 0 mm
13:34 27.8 °C 19.6 °C 1012.4 hPa SSE 8 km/h 12.9 km/h 61% 0 mm
13:39 27.8 °C 19.1 °C 1012.4 hPa SW 4.8 km/h 9.7 km/h 59% 0 mm
13:44 27.9 °C 19.4 °C 1012.4 hPa SE 6.4 km/h 6.4 km/h 60% 0 mm
13:49 27.8 °C 19.1 °C 1012.4 hPa SE 8 km/h 8 km/h 59% 0 mm
13:54 27.7 °C 18.9 °C 1012.1 hPa WSW 9.7 km/h 11.3 km/h 59% 0 mm
13:59 27.5 °C 19.8 °C 1012.1 hPa South 6.4 km/h 8 km/h 63% 0 mm
14:04 27.8 °C 19.3 °C 1012.1 hPa SW 3.2 km/h 9.7 km/h 60% 0 mm
14:10 27.9 °C 20 °C 1012.1 hPa South 1.6 km/h 6.4 km/h 62% 0 mm
14:15 28.3 °C 20.1 °C 1012.1 hPa SE 4.8 km/h 8 km/h 61% 0 mm
14:20 28.4 °C 21 °C 1011.7 hPa SW 8 km/h 9.7 km/h 64% 0 mm
14:25 28.6 °C 19.8 °C 1011.7 hPa SW 9.7 km/h 16.1 km/h 59% 0 mm
14:30 28.3 °C 19.8 °C 1011.7 hPa SSE 1.6 km/h 6.4 km/h 60% 0 mm
14:35 27.9 °C 19.9 °C 1012.1 hPa WSW 9.7 km/h 9.7 km/h 62% 0 mm
14:40 27.7 °C 20.2 °C 1012.1 hPa SW 12.9 km/h 12.9 km/h 64% 0 mm
14:45 27.4 °C 20 °C 1012.1 hPa SW 1.6 km/h 8 km/h 64% 0 mm
14:50 27.4 °C 20 °C 1012.1 hPa South 8 km/h 9.7 km/h 64% 0 mm
14:55 27.3 °C 20.2 °C 1012.1 hPa SSE 12.9 km/h 12.9 km/h 65% 0 mm
15:00 27.3 °C 20.7 °C 1012.1 hPa SSE 8 km/h 9.7 km/h 67% 0 mm
15:05 27.6 °C 21.3 °C 1011.7 hPa SW 11.3 km/h 12.9 km/h 69% 0 mm
15:10 27.4 °C 20.7 °C 1011.7 hPa WSW 6.4 km/h 12.9 km/h 67% 0 mm
15:15 27.7 °C 21.5 °C 1011.4 hPa SW 4.8 km/h 8 km/h 69% 0 mm
15:20 28 °C 21.3 °C 1011.4 hPa SSW 4.8 km/h 9.7 km/h 67% 0 mm
15:25 28.2 °C 21 °C 1011.4 hPa South 9.7 km/h 12.9 km/h 65% 0 mm
15:30 28.4 °C 21.2 °C 1011.4 hPa SW 14.5 km/h 17.7 km/h 65% 0 mm
15:35 28.4 °C 21.2 °C 1011.4 hPa WSW 8 km/h 19.3 km/h 65% 0 mm
15:40 28.1 °C 21.2 °C 1011.1 hPa SW 12.9 km/h 14.5 km/h 66% 0 mm
15:45 28 °C 21.3 °C 1011.1 hPa SW 12.9 km/h 16.1 km/h 67% 0 mm
15:50 28 °C 21.6 °C 1011.1 hPa SE 6.4 km/h 14.5 km/h 68% 0 mm
15:55 27.9 °C 21.4 °C 1011.1 hPa SW 11.3 km/h 14.5 km/h 68% 0 mm
16:00 27.8 °C 21.8 °C 1011.1 hPa West 8 km/h 17.7 km/h 70% 0 mm
16:05 27.8 °C 21.6 °C 1011.1 hPa SSW 4.8 km/h 12.9 km/h 69% 0 mm
16:10 27.7 °C 21.3 °C 1010.7 hPa SW 8 km/h 14.5 km/h 68% 0 mm
16:15 27.8 °C 21.6 °C 1010.7 hPa SSW 6.4 km/h 12.9 km/h 69% 0 mm
16:20 27.8 °C 21.4 °C 1010.4 hPa SW 8 km/h 12.9 km/h 68% 0 mm
16:25 28 °C 22 °C 1010.4 hPa SSW 4.8 km/h 14.5 km/h 70% 0 mm
16:30 28.1 °C 22.3 °C 1010.4 hPa SE 4.8 km/h 12.9 km/h 71% 0 mm
16:35 28.3 °C 21.6 °C 1010 hPa WSW 9.7 km/h 17.7 km/h 67% 0 mm
16:40 28.3 °C 21.8 °C 1010 hPa SSW 6.4 km/h 11.3 km/h 68% 0 mm
16:45 28.3 °C 21.6 °C 1010 hPa SW 6.4 km/h 16.1 km/h 67% 0 mm
16:50 28.3 °C 22.1 °C 1010 hPa South 6.4 km/h 11.3 km/h 69% 0 mm
16:55 28.3 °C 21.9 °C 1010.4 hPa SSW 9.7 km/h 19.3 km/h 68% 0 mm
17:00 28.1 °C 21.9 °C 1010.4 hPa WSW 6.4 km/h 19.3 km/h 69% 0 mm
17:06 28.1 °C 21.9 °C 1010.4 hPa SW 12.9 km/h 12.9 km/h 69% 0 mm
17:10 28.1 °C 21.8 °C 1010.4 hPa SW 8 km/h 11.3 km/h 69% 0 mm
17:16 28.1 °C 22.1 °C 1010.4 hPa WSW 14.5 km/h 16.1 km/h 70% 0 mm
17:21 27.9 °C 21.9 °C 1010.7 hPa SSW 9.7 km/h 11.3 km/h 70% 0 mm
17:26 27.7 °C 22 °C 1010.7 hPa SW 8 km/h 12.9 km/h 71% 0 mm
17:31 27.6 °C 22.1 °C 1010.7 hPa SW 8 km/h 9.7 km/h 72% 0 mm
17:36 27.4 °C 22.3 °C 1010.7 hPa SW 8 km/h 14.5 km/h 74% 0 mm
17:41 27.2 °C 21.9 °C 1010.7 hPa SW 11.3 km/h 14.5 km/h 73% 0 mm
17:46 27.2 °C 22.2 °C 1010.4 hPa SSW 4.8 km/h 9.7 km/h 74% 0 mm
17:51 27.2 °C 22.2 °C 1010.4 hPa WSW 9.7 km/h 11.3 km/h 74% 0 mm
17:56 27.2 °C 22.3 °C 1010.4 hPa WSW 8 km/h 9.7 km/h 75% 0 mm
18:01 27.1 °C 22.3 °C 1010.4 hPa SW 8 km/h 11.3 km/h 75% 0 mm
18:06 27.2 °C 22.6 °C 1010.4 hPa SW 6.4 km/h 12.9 km/h 76% 0 mm
18:11 27.4 °C 22.6 °C 1010 hPa SSW 8 km/h 12.9 km/h 75% 0 mm
18:16 27.5 °C 22.4 °C 1010 hPa SW 11.3 km/h 11.3 km/h 74% 0 mm
18:21 27.7 °C 22.8 °C 1010.4 hPa SW 8 km/h 11.3 km/h 75% 0 mm
18:26 27.6 °C 22.5 °C 1010 hPa SW 6.4 km/h 12.9 km/h 74% 0 mm
18:31 27.4 °C 22.4 °C 1010 hPa SW 11.3 km/h 17.7 km/h 74% 0 mm
18:36 27.4 °C 22.6 °C 1010 hPa SW 8 km/h 14.5 km/h 75% 0 mm
18:41 27.2 °C 22.3 °C 1010 hPa SSW 9.7 km/h 14.5 km/h 75% 0 mm
18:46 27.1 °C 22.1 °C 1010 hPa SW 4.8 km/h 16.1 km/h 74% 0 mm
18:51 27 °C 22 °C 1010 hPa SW 11.3 km/h 16.1 km/h 74% 0 mm
18:56 27 °C 22.2 °C 1010 hPa SW 12.9 km/h 12.9 km/h 75% 0 mm
19:01 27.2 °C 21.9 °C 1010 hPa SW 12.9 km/h 16.1 km/h 73% 0 mm
19:06 27.4 °C 21.4 °C 1010 hPa SSW 11.3 km/h 19.3 km/h 70% 0 mm
19:11 27.2 °C 21.5 °C 1010 hPa SSW 9.7 km/h 12.9 km/h 71% 0 mm
19:16 27 °C 21.6 °C 1010 hPa West 11.3 km/h 14.5 km/h 72% 0 mm
19:21 26.8 °C 21.4 °C 1010 hPa SSW 9.7 km/h 12.9 km/h 72% 0 mm
19:26 26.8 °C 21.6 °C 1009.7 hPa West 4.8 km/h 9.7 km/h 73% 0 mm
19:31 26.7 °C 21.5 °C 1010 hPa West 3.2 km/h 8 km/h 73% 0 mm
19:36 26.7 °C 21.4 °C 1010 hPa West 8 km/h 9.7 km/h 73% 0 mm
19:41 26.7 °C 21.5 °C 1010 hPa SW 6.4 km/h 11.3 km/h 73% 0 mm
19:46 26.8 °C 21.6 °C 1009.7 hPa SW 8 km/h 12.9 km/h 73% 0 mm
19:51 26.9 °C 21.7 °C 1009.7 hPa WSW 6.4 km/h 9.7 km/h 73% 0 mm
19:56 27 °C 22 °C 1009.4 hPa SW 4.8 km/h 9.7 km/h 74% 0 mm
20:01 26.9 °C 21.9 °C 1009.4 hPa SSW 3.2 km/h 8 km/h 74% 0 mm
20:06 26.7 °C 21.7 °C 1009.4 hPa SW 8 km/h 8 km/h 74% 0 mm
20:11 26.6 °C 21.8 °C 1009.4 hPa SW 3.2 km/h 6.4 km/h 75% 0 mm
20:16 26.4 °C 21.7 °C 1009.4 hPa WSW 4.8 km/h 6.4 km/h 75% 0 mm
20:21 26.2 °C 21.9 °C 1009.7 hPa SW 6.4 km/h 6.4 km/h 77% 0 mm
20:26 25.9 °C 21.8 °C 1009.7 hPa WSW 3.2 km/h 8 km/h 78% 0 mm
20:31 25.7 °C 22 °C 1009.7 hPa SW 6.4 km/h 6.4 km/h 80% 0 mm
20:36 25.7 °C 21.9 °C 1009.7 hPa SSW 1.6 km/h 6.4 km/h 80% 0 mm
20:41 25.5 °C 22 °C 1009.4 hPa Calm   4.8 km/h 81% 0 mm
20:46 25.4 °C 21.9 °C 1009.4 hPa SSW 1.6 km/h 3.2 km/h 81% 0 mm
20:51 25.2 °C 21.9 °C 1009.4 hPa SSW 1.6 km/h 3.2 km/h 82% 0 mm
20:56 25.1 °C 21.8 °C 1009.4 hPa South 4.8 km/h 4.8 km/h 82% 0 mm
21:01 25 °C 21.9 °C 1009.4 hPa SSW 3.2 km/h 4.8 km/h 83% 0 mm
21:06 24.9 °C 21.8 °C 1009.7 hPa SSW 1.6 km/h 4.8 km/h 83% 0 mm
21:11 24.8 °C 21.9 °C 1009.7 hPa SW 4.8 km/h 4.8 km/h 84% 0 mm
21:16 24.6 °C 21.9 °C 1009.7 hPa SSW 3.2 km/h 6.4 km/h 85% 0 mm
21:22 24.4 °C 21.7 °C 1009.7 hPa SW 4.8 km/h 4.8 km/h 85% 0 mm
21:27 24.4 °C 21.7 °C 1009.4 hPa SSW 4.8 km/h 8 km/h 85% 0 mm
21:32 24.4 °C 21.8 °C 1009.4 hPa SW 6.4 km/h 6.4 km/h 85% 0 mm
21:37 24.4 °C 21.7 °C 1009.4 hPa SSE 6.4 km/h 8 km/h 85% 0 mm
21:42 24.3 °C 21.7 °C 1009.4 hPa SW 6.4 km/h 6.4 km/h 85% 0 mm
21:47 24.3 °C 21.7 °C 1009.4 hPa SW 1.6 km/h 6.4 km/h 85% 0 mm
21:52 24.3 °C 21.7 °C 1009.7 hPa Calm   1.6 km/h 85% 0 mm
21:57 24.2 °C 21.6 °C 1009.4 hPa Calm   1.6 km/h 85% 0 mm
22:02 24.2 °C 21.5 °C 1009.7 hPa Calm     85% 0 mm
22:07 24.1 °C 21.6 °C 1009.7 hPa NNE 3.2 km/h 3.2 km/h 86% 0 mm
22:12 23.9 °C 21.7 °C 1009.7 hPa NE 3.2 km/h 3.2 km/h 87% 0 mm
22:17 23.8 °C 21.7 °C 1009.7 hPa ENE 3.2 km/h 4.8 km/h 88% 0 mm
22:22 23.7 °C 21.6 °C 1009.7 hPa NE 3.2 km/h 3.2 km/h 88% 0 mm
22:27 23.7 °C 21.6 °C 1010 hPa WNW 6.4 km/h 6.4 km/h 88% 0 mm
22:32 23.3 °C 21.6 °C 1011.1 hPa WNW 19.3 km/h 19.3 km/h 90% 79.5 mm
22:37 22.6 °C 21 °C 1011.4 hPa WSW 11.3 km/h 20.9 km/h 91% 52.07 mm
22:42 21.4 °C 19.7 °C 1010.7 hPa ENE 9.7 km/h 11.3 km/h 90% 105.16 mm
22:47 20.7 °C 19.2 °C 1011.1 hPa ESE 6.4 km/h 6.4 km/h 91% 68.07 mm
22:52 20.4 °C 19.1 °C 1010.7 hPa NNE 6.4 km/h 16.1 km/h 92% 17.53 mm
22:57 19.8 °C 18.3 °C 1010.7 hPa North 6.4 km/h 8 km/h 91% 6.6 mm
23:02 19.4 °C 18.1 °C 1011.1 hPa NNW 20.9 km/h 20.9 km/h 92% 2.03 mm
23:07 19.3 °C 18 °C 1011.1 hPa SE 11.3 km/h 14.5 km/h 92% 1.27 mm
23:12 19.6 °C 18.1 °C 1011.1 hPa East 17.7 km/h 27.4 km/h 91% 0 mm
23:18 19.8 °C 18.4 °C 1010.4 hPa East 11.3 km/h 19.3 km/h 92% 12.45 mm
23:23 19.9 °C 18.6 °C 1010.4 hPa ESE 4.8 km/h 20.9 km/h 92% 8.89 mm
23:28 19.9 °C 18.6 °C 1010.7 hPa East 8 km/h 14.5 km/h 92% 3.3 mm
23:33 19.9 °C 18.6 °C 1011.4 hPa North 8 km/h 16.1 km/h 92% 9.14 mm
23:38 19.8 °C 18.5 °C 1011.1 hPa ENE 8 km/h 9.7 km/h 92% 12.7 mm
23:43 19.7 °C 18.5 °C 1011.1 hPa ENE 1.6 km/h 9.7 km/h 93% 6.6 mm
23:48 19.6 °C 18.4 °C 1011.1 hPa ESE 1.6 km/h 6.4 km/h 93% 2.79 mm
23:53 19.5 °C 18.3 °C 1011.1 hPa Calm     93% 1.52 mm
23:58 19.5 °C 18.3 °C 1011.7 hPa West 1.6 km/h 3.2 km/h 93% 1.02 mm
Compliments of Weather Underground